Terminal Aerodrome Forecast
Issued by NWS Paducah, KY

Home | Current Version | Previous Version | Graphics & Text | Print | Product List | Glossary On
Versions: 1 2 3 4 5 6 7 8 9 10 11 12 13 14 15
000
FTUS43 KPAH 211100
TAFPAH
TAF
KPAH 211130Z 2112/2212 22006KT P6SM SKC
      TEMPO 2112/2114 BKN110
     FM211430 21007KT P6SM SKC
     FM220100 20002KT P6SM SKC
      TEMPO 2208/2212 6SM BR SCT035=

USA.gov is the U.S. government's official web portal to all federal, state and local government web resources and services.